sensor_id;sensor_type;location;lat;lon;timestamp;temperature;humidity
75357;HTU21D;63946;51.986;5.930;2023-01-26T00:00:06;1.07;74.47
75357;HTU21D;63946;51.986;5.930;2023-01-26T00:02:35;1.06;74.64
75357;HTU21D;63946;51.986;5.930;2023-01-26T00:05:04;1.06;74.63
75357;HTU21D;63946;51.986;5.930;2023-01-26T00:07:33;0.96;74.87
75357;HTU21D;63946;51.986;5.930;2023-01-26T00:10:02;0.94;75.08
75357;HTU21D;63946;51.986;5.930;2023-01-26T00:12:31;0.93;75.07
75357;HTU21D;63946;51.986;5.930;2023-01-26T00:15:00;0.95;74.96
75357;HTU21D;63946;51.986;5.930;2023-01-26T00:17:28;0.89;74.91
75357;HTU21D;63946;51.986;5.930;2023-01-26T00:19:57;0.78;75.41
75357;HTU21D;63946;51.986;5.930;2023-01-26T00:22:26;0.78;75.54
75357;HTU21D;63946;51.986;5.930;2023-01-26T00:24:55;0.76;75.46
75357;HTU21D;63946;51.986;5.930;2023-01-26T00:27:23;0.68;75.71
75357;HTU21D;63946;51.986;5.930;2023-01-26T00:29:52;0.67;75.95
75357;HTU21D;63946;51.986;5.930;2023-01-26T00:32:21;0.76;75.79
75357;HTU21D;63946;51.986;5.930;2023-01-26T00:34:49;0.86;75.49
75357;HTU21D;63946;51.986;5.930;2023-01-26T00:37:18;0.90;75.22
75357;HTU21D;63946;51.986;5.930;2023-01-26T00:39:47;0.94;75.16
75357;HTU21D;63946;51.986;5.930;2023-01-26T00:42:15;0.92;75.28
75357;HTU21D;63946;51.986;5.930;2023-01-26T00:44:45;0.94;75.17
75357;HTU21D;63946;51.986;5.930;2023-01-26T00:47:14;0.94;75.20
75357;HTU21D;63946;51.986;5.930;2023-01-26T00:49:43;0.96;75.11
75357;HTU21D;63946;51.986;5.930;2023-01-26T00:52:12;1.01;75.02
75357;HTU21D;63946;51.986;5.930;2023-01-26T00:54:40;0.99;75.13
75357;HTU21D;63946;51.986;5.930;2023-01-26T00:57:09;1.05;75.01
75357;HTU21D;63946;51.986;5.930;2023-01-26T00:59:38;1.07;74.91
75357;HTU21D;63946;51.986;5.930;2023-01-26T01:02:06;1.07;74.83
75357;HTU21D;63946;51.986;5.930;2023-01-26T01:04:35;1.09;74.76
75357;HTU21D;63946;51.986;5.930;2023-01-26T01:07:04;1.09;74.75
75357;HTU21D;63946;51.986;5.930;2023-01-26T01:09:33;1.10;74.70
75357;HTU21D;63946;51.986;5.930;2023-01-26T01:12:01;1.14;74.67
75357;HTU21D;63946;51.986;5.930;2023-01-26T01:14:30;1.17;74.60
75357;HTU21D;63946;51.986;5.930;2023-01-26T01:16:59;1.17;74.51
75357;HTU21D;63946;51.986;5.930;2023-01-26T01:19:27;1.21;74.51
75357;HTU21D;63946;51.986;5.930;2023-01-26T01:21:56;1.26;74.44
75357;HTU21D;63946;51.986;5.930;2023-01-26T01:24:25;1.28;74.33
75357;HTU21D;63946;51.986;5.930;2023-01-26T01:26:54;1.28;74.36
75357;HTU21D;63946;51.986;5.930;2023-01-26T01:29:22;1.32;74.35
75357;HTU21D;63946;51.986;5.930;2023-01-26T01:31:51;1.31;74.36
75357;HTU21D;63946;51.986;5.930;2023-01-26T01:34:20;1.32;74.35
75357;HTU21D;63946;51.986;5.930;2023-01-26T01:36:48;1.27;74.37
75357;HTU21D;63946;51.986;5.930;2023-01-26T01:39:17;1.25;74.63
75357;HTU21D;63946;51.986;5.930;2023-01-26T01:41:46;1.29;74.54
75357;HTU21D;63946;51.986;5.930;2023-01-26T01:44:23;1.28;74.41
75357;HTU21D;63946;51.986;5.930;2023-01-26T01:46:57;1.27;74.51
75357;HTU21D;63946;51.986;5.930;2023-01-26T01:49:43;1.31;74.46
75357;HTU21D;63946;51.986;5.930;2023-01-26T01:52:20;1.33;74.39
75357;HTU21D;63946;51.986;5.930;2023-01-26T01:55:08;1.35;74.42
75357;HTU21D;63946;51.986;5.930;2023-01-26T01:57:47;1.38;74.40
75357;HTU21D;63946;51.986;5.930;2023-01-26T02:00:19;1.40;74.32
75357;HTU21D;63946;51.986;5.930;2023-01-26T02:02:58;1.38;74.33
75357;HTU21D;63946;51.986;5.930;2023-01-26T02:05:49;1.39;74.41
75357;HTU21D;63946;51.986;5.930;2023-01-26T02:08:23;1.37;74.41
75357;HTU21D;63946;51.986;5.930;2023-01-26T02:10:54;1.31;74.54
75357;HTU21D;63946;51.986;5.930;2023-01-26T02:13:26;1.23;74.70
75357;HTU21D;63946;51.986;5.930;2023-01-26T02:15:58;1.17;75.00
75357;HTU21D;63946;51.986;5.930;2023-01-26T02:18:27;1.09;75.18
75357;HTU21D;63946;51.986;5.930;2023-01-26T02:21:09;1.05;75.32
75357;HTU21D;63946;51.986;5.930;2023-01-26T02:24:06;1.05;75.47
75357;HTU21D;63946;51.986;5.930;2023-01-26T02:26:36;1.07;75.42
75357;HTU21D;63946;51.986;5.930;2023-01-26T02:29:09;1.06;75.44
75357;HTU21D;63946;51.986;5.930;2023-01-26T02:31:42;1.13;75.38
75357;HTU21D;63946;51.986;5.930;2023-01-26T02:34:11;1.18;75.24
75357;HTU21D;63946;51.986;5.930;2023-01-26T02:36:39;1.25;75.11
75357;HTU21D;63946;51.986;5.930;2023-01-26T02:39:22;1.31;75.04
75357;HTU21D;63946;51.986;5.930;2023-01-26T02:41:54;1.36;74.80
75357;HTU21D;63946;51.986;5.930;2023-01-26T02:44:36;1.36;74.77
75357;HTU21D;63946;51.986;5.930;2023-01-26T02:47:16;1.37;74.90
75357;HTU21D;63946;51.986;5.930;2023-01-26T02:49:47;1.42;74.78
75357;HTU21D;63946;51.986;5.930;2023-01-26T02:52:20;1.40;74.79
75357;HTU21D;63946;51.986;5.930;2023-01-26T02:55:00;1.41;74.76
75357;HTU21D;63946;51.986;5.930;2023-01-26T02:57:44;1.46;74.72
75357;HTU21D;63946;51.986;5.930;2023-01-26T03:00:19;1.46;74.65
75357;HTU21D;63946;51.986;5.930;2023-01-26T03:02:51;1.46;74.64
75357;HTU21D;63946;51.986;5.930;2023-01-26T03:05:22;1.49;74.51
75357;HTU21D;63946;51.986;5.930;2023-01-26T03:07:53;1.46;74.54
75357;HTU21D;63946;51.986;5.930;2023-01-26T03:10:24;1.48;74.68
75357;HTU21D;63946;51.986;5.930;2023-01-26T03:12:53;1.51;74.54
75357;HTU21D;63946;51.986;5.930;2023-01-26T03:15:22;1.52;74.51
75357;HTU21D;63946;51.986;5.930;2023-01-26T03:18:10;1.52;74.52
75357;HTU21D;63946;51.986;5.930;2023-01-26T03:20:54;1.50;74.55
75357;HTU21D;63946;51.986;5.930;2023-01-26T03:23:36;1.50;74.69
75357;HTU21D;63946;51.986;5.930;2023-01-26T03:26:17;1.55;74.60
75357;HTU21D;63946;51.986;5.930;2023-01-26T03:28:58;1.57;74.47
75357;HTU21D;63946;51.986;5.930;2023-01-26T03:31:27;1.57;74.51
75357;HTU21D;63946;51.986;5.930;2023-01-26T03:33:55;1.56;74.60
75357;HTU21D;63946;51.986;5.930;2023-01-26T03:36:24;1.60;74.55
75357;HTU21D;63946;51.986;5.930;2023-01-26T03:38:53;1.55;74.57
75357;HTU21D;63946;51.986;5.930;2023-01-26T03:41:22;1.56;74.54
75357;HTU21D;63946;51.986;5.930;2023-01-26T03:44:03;1.52;74.65
75357;HTU21D;63946;51.986;5.930;2023-01-26T03:46:44;1.53;74.57
75357;HTU21D;63946;51.986;5.930;2023-01-26T03:49:25;1.53;74.64
75357;HTU21D;63946;51.986;5.930;2023-01-26T03:52:06;1.55;74.57
75357;HTU21D;63946;51.986;5.930;2023-01-26T03:54:48;1.53;74.56
75357;HTU21D;63946;51.986;5.930;2023-01-26T03:57:30;1.56;74.57
75357;HTU21D;63946;51.986;5.930;2023-01-26T03:59:58;1.60;74.52
75357;HTU21D;63946;51.986;5.930;2023-01-26T04:02:28;1.63;74.48
75357;HTU21D;63946;51.986;5.930;2023-01-26T04:05:10;1.68;74.44
75357;HTU21D;63946;51.986;5.930;2023-01-26T04:08:01;1.67;74.34
75357;HTU21D;63946;51.986;5.930;2023-01-26T04:10:42;1.65;74.39
75357;HTU21D;63946;51.986;5.930;2023-01-26T04:13:11;1.67;74.47
75357;HTU21D;63946;51.986;5.930;2023-01-26T04:15:59;1.69;74.41
75357;HTU21D;63946;51.986;5.930;2023-01-26T04:18:40;1.68;74.35
75357;HTU21D;63946;51.986;5.930;2023-01-26T04:21:21;1.68;74.38
75357;HTU21D;63946;51.986;5.930;2023-01-26T04:23:58;1.70;74.38
75357;HTU21D;63946;51.986;5.930;2023-01-26T04:26:30;1.71;74.33
75357;HTU21D;63946;51.986;5.930;2023-01-26T04:29:13;1.69;74.39
75357;HTU21D;63946;51.986;5.930;2023-01-26T04:31:43;1.69;74.41
75357;HTU21D;63946;51.986;5.930;2023-01-26T04:34:15;1.70;74.50
75357;HTU21D;63946;51.986;5.930;2023-01-26T04:36:44;1.75;74.44
75357;HTU21D;63946;51.986;5.930;2023-01-26T04:39:14;1.77;74.43
75357;HTU21D;63946;51.986;5.930;2023-01-26T04:41:47;1.78;74.42
75357;HTU21D;63946;51.986;5.930;2023-01-26T04:44:16;1.78;74.42
75357;HTU21D;63946;51.986;5.930;2023-01-26T04:46:46;1.81;74.41
75357;HTU21D;63946;51.986;5.930;2023-01-26T04:49:15;1.77;74.56
75357;HTU21D;63946;51.986;5.930;2023-01-26T04:51:44;1.79;74.56
75357;HTU21D;63946;51.986;5.930;2023-01-26T04:54:13;1.82;74.48
75357;HTU21D;63946;51.986;5.930;2023-01-26T04:56:44;1.86;74.39
75357;HTU21D;63946;51.986;5.930;2023-01-26T04:59:12;1.86;74.42
75357;HTU21D;63946;51.986;5.930;2023-01-26T05:01:42;1.83;74.42
75357;HTU21D;63946;51.986;5.930;2023-01-26T05:04:11;1.82;74.58
75357;HTU21D;63946;51.986;5.930;2023-01-26T05:06:43;1.80;74.60
75357;HTU21D;63946;51.986;5.930;2023-01-26T05:09:12;1.79;74.74
75357;HTU21D;63946;51.986;5.930;2023-01-26T05:11:43;1.82;74.73
75357;HTU21D;63946;51.986;5.930;2023-01-26T05:14:29;1.83;74.68
75357;HTU21D;63946;51.986;5.930;2023-01-26T05:17:18;1.86;74.73
75357;HTU21D;63946;51.986;5.930;2023-01-26T05:20:08;1.88;74.70
75357;HTU21D;63946;51.986;5.930;2023-01-26T05:22:40;1.90;74.66
75357;HTU21D;63946;51.986;5.930;2023-01-26T05:25:37;1.94;74.54
75357;HTU21D;63946;51.986;5.930;2023-01-26T05:28:09;1.95;74.50
75357;HTU21D;63946;51.986;5.930;2023-01-26T05:30:39;1.93;74.54
75357;HTU21D;63946;51.986;5.930;2023-01-26T05:33:09;1.88;74.60
75357;HTU21D;63946;51.986;5.930;2023-01-26T05:35:38;1.86;74.64
75357;HTU21D;63946;51.986;5.930;2023-01-26T05:38:08;1.83;74.74
75357;HTU21D;63946;51.986;5.930;2023-01-26T05:40:37;1.87;74.68
75357;HTU21D;63946;51.986;5.930;2023-01-26T05:43:06;1.91;74.62
75357;HTU21D;63946;51.986;5.930;2023-01-26T05:46:07;1.92;74.57
75357;HTU21D;63946;51.986;5.930;2023-01-26T05:48:39;1.96;74.47
75357;HTU21D;63946;51.986;5.930;2023-01-26T05:51:10;1.98;74.54
75357;HTU21D;63946;51.986;5.930;2023-01-26T05:53:39;2.00;74.44
75357;HTU21D;63946;51.986;5.930;2023-01-26T05:56:08;1.98;74.53
75357;HTU21D;63946;51.986;5.930;2023-01-26T05:58:42;1.95;74.59
75357;HTU21D;63946;51.986;5.930;2023-01-26T06:01:10;1.92;74.67
75357;HTU21D;63946;51.986;5.930;2023-01-26T06:03:47;1.91;74.78
75357;HTU21D;63946;51.986;5.930;2023-01-26T06:06:16;1.91;74.86
75357;HTU21D;63946;51.986;5.930;2023-01-26T06:08:49;1.95;74.78
75357;HTU21D;63946;51.986;5.930;2023-01-26T06:11:31;1.98;74.68
75357;HTU21D;63946;51.986;5.930;2023-01-26T06:14:15;2.02;74.64
75357;HTU21D;63946;51.986;5.930;2023-01-26T06:16:44;2.07;74.60
75357;HTU21D;63946;51.986;5.930;2023-01-26T06:19:13;2.08;74.63
75357;HTU21D;63946;51.986;5.930;2023-01-26T06:21:46;2.10;74.59
75357;HTU21D;63946;51.986;5.930;2023-01-26T06:24:15;2.11;74.66
75357;HTU21D;63946;51.986;5.930;2023-01-26T06:26:46;2.10;74.62
75357;HTU21D;63946;51.986;5.930;2023-01-26T06:29:17;2.10;74.64
75357;HTU21D;63946;51.986;5.930;2023-01-26T06:31:46;2.13;74.56
75357;HTU21D;63946;51.986;5.930;2023-01-26T06:34:15;2.14;74.60
75357;HTU21D;63946;51.986;5.930;2023-01-26T06:36:45;2.17;74.58
75357;HTU21D;63946;51.986;5.930;2023-01-26T06:39:22;2.20;74.50
75357;HTU21D;63946;51.986;5.930;2023-01-26T06:41:50;2.19;74.43
75357;HTU21D;63946;51.986;5.930;2023-01-26T06:44:19;2.17;74.47
75357;HTU21D;63946;51.986;5.930;2023-01-26T06:46:48;2.20;74.42
75357;HTU21D;63946;51.986;5.930;2023-01-26T06:49:16;2.19;74.50
75357;HTU21D;63946;51.986;5.930;2023-01-26T06:51:46;2.20;74.56
75357;HTU21D;63946;51.986;5.930;2023-01-26T06:54:22;2.21;74.53
75357;HTU21D;63946;51.986;5.930;2023-01-26T06:57:00;2.23;74.60
75357;HTU21D;63946;51.986;5.930;2023-01-26T06:59:40;2.26;74.38
75357;HTU21D;63946;51.986;5.930;2023-01-26T07:02:19;2.26;74.47
75357;HTU21D;63946;51.986;5.930;2023-01-26T07:04:49;2.27;74.52
75357;HTU21D;63946;51.986;5.930;2023-01-26T07:07:17;2.29;74.57
75357;HTU21D;63946;51.986;5.930;2023-01-26T07:09:46;2.31;74.51
75357;HTU21D;63946;51.986;5.930;2023-01-26T07:12:15;2.34;74.43
75357;HTU21D;63946;51.986;5.930;2023-01-26T07:14:43;2.35;74.43
75357;HTU21D;63946;51.986;5.930;2023-01-26T07:17:12;2.35;74.53
75357;HTU21D;63946;51.986;5.930;2023-01-26T07:19:44;2.36;74.48
75357;HTU21D;63946;51.986;5.930;2023-01-26T07:22:13;2.35;74.52
75357;HTU21D;63946;51.986;5.930;2023-01-26T07:24:42;2.35;74.59
75357;HTU21D;63946;51.986;5.930;2023-01-26T07:27:11;2.34;74.65
75357;HTU21D;63946;51.986;5.930;2023-01-26T07:29:40;2.36;74.71
75357;HTU21D;63946;51.986;5.930;2023-01-26T07:32:08;2.38;74.64
75357;HTU21D;63946;51.986;5.930;2023-01-26T07:34:37;2.40;74.63
75357;HTU21D;63946;51.986;5.930;2023-01-26T07:37:06;2.37;74.83
75357;HTU21D;63946;51.986;5.930;2023-01-26T07:39:34;2.39;74.86
75357;HTU21D;63946;51.986;5.930;2023-01-26T07:42:03;2.42;74.85
75357;HTU21D;63946;51.986;5.930;2023-01-26T07:44:40;2.45;74.76
75357;HTU21D;63946;51.986;5.930;2023-01-26T07:47:09;2.47;74.70
75357;HTU21D;63946;51.986;5.930;2023-01-26T07:49:39;2.49;74.70
75357;HTU21D;63946;51.986;5.930;2023-01-26T07:52:08;2.52;74.65
75357;HTU21D;63946;51.986;5.930;2023-01-26T07:54:37;2.54;74.64
75357;HTU21D;63946;51.986;5.930;2023-01-26T07:57:06;2.55;74.67
75357;HTU21D;63946;51.986;5.930;2023-01-26T07:59:34;2.56;74.61
75357;HTU21D;63946;51.986;5.930;2023-01-26T08:02:03;2.55;74.67
75357;HTU21D;63946;51.986;5.930;2023-01-26T08:04:32;2.55;74.71
75357;HTU21D;63946;51.986;5.930;2023-01-26T08:07:00;2.55;74.70
75357;HTU21D;63946;51.986;5.930;2023-01-26T08:09:29;2.54;74.75
75357;HTU21D;63946;51.986;5.930;2023-01-26T08:12:00;2.56;74.73
75357;HTU21D;63946;51.986;5.930;2023-01-26T08:14:30;2.57;74.70
75357;HTU21D;63946;51.986;5.930;2023-01-26T08:16:58;2.58;74.72
75357;HTU21D;63946;51.986;5.930;2023-01-26T08:19:27;2.62;74.69
75357;HTU21D;63946;51.986;5.930;2023-01-26T08:21:56;2.62;74.72
75357;HTU21D;63946;51.986;5.930;2023-01-26T08:24:25;2.65;74.73
75357;HTU21D;63946;51.986;5.930;2023-01-26T08:26:53;2.65;74.74
75357;HTU21D;63946;51.986;5.930;2023-01-26T08:29:22;2.66;74.76
75357;HTU21D;63946;51.986;5.930;2023-01-26T08:31:51;2.69;74.78
75357;HTU21D;63946;51.986;5.930;2023-01-26T08:34:20;2.71;74.73
75357;HTU21D;63946;51.986;5.930;2023-01-26T08:36:51;2.73;74.70
75357;HTU21D;63946;51.986;5.930;2023-01-26T08:39:20;2.76;74.75
75357;HTU21D;63946;51.986;5.930;2023-01-26T08:41:48;2.80;74.74
75357;HTU21D;63946;51.986;5.930;2023-01-26T08:44:17;2.83;74.70
75357;HTU21D;63946;51.986;5.930;2023-01-26T08:46:46;2.86;74.77
75357;HTU21D;63946;51.986;5.930;2023-01-26T08:49:15;2.88;74.80
75357;HTU21D;63946;51.986;5.930;2023-01-26T08:51:44;2.94;74.78
75357;HTU21D;63946;51.986;5.930;2023-01-26T08:54:15;2.99;74.73
75357;HTU21D;63946;51.986;5.930;2023-01-26T08:56:44;2.99;74.80
75357;HTU21D;63946;51.986;5.930;2023-01-26T08:59:13;3.00;74.94
75357;HTU21D;63946;51.986;5.930;2023-01-26T09:01:42;3.03;75.04
75357;HTU21D;63946;51.986;5.930;2023-01-26T09:04:10;3.06;75.12
75357;HTU21D;63946;51.986;5.930;2023-01-26T09:06:39;3.12;75.14
75357;HTU21D;63946;51.986;5.930;2023-01-26T09:09:08;3.19;75.12
75357;HTU21D;63946;51.986;5.930;2023-01-26T09:11:39;3.25;75.03
75357;HTU21D;63946;51.986;5.930;2023-01-26T09:14:07;3.29;75.10
75357;HTU21D;63946;51.986;5.930;2023-01-26T09:16:36;3.33;75.09
75357;HTU21D;63946;51.986;5.930;2023-01-26T09:19:05;3.34;75.15
75357;HTU21D;63946;51.986;5.930;2023-01-26T09:21:33;3.38;75.21
75357;HTU21D;63946;51.986;5.930;2023-01-26T09:24:02;3.40;75.26
75357;HTU21D;63946;51.986;5.930;2023-01-26T09:26:31;3.45;75.28
75357;HTU21D;63946;51.986;5.930;2023-01-26T09:29:00;3.45;75.35
75357;HTU21D;63946;51.986;5.930;2023-01-26T09:31:29;3.41;75.58
75357;HTU21D;63946;51.986;5.930;2023-01-26T09:33:57;3.42;75.67
75357;HTU21D;63946;51.986;5.930;2023-01-26T09:36:26;3.47;75.63
75357;HTU21D;63946;51.986;5.930;2023-01-26T09:38:55;3.48;75.66
75357;HTU21D;63946;51.986;5.930;2023-01-26T09:44:12;3.55;75.73
75357;HTU21D;63946;51.986;5.930;2023-01-26T09:49:53;3.65;75.87
75357;HTU21D;63946;51.986;5.930;2023-01-26T09:52:31;3.70;75.79
75357;HTU21D;63946;51.986;5.930;2023-01-26T09:55:07;3.72;75.82
75357;HTU21D;63946;51.986;5.930;2023-01-26T09:57:59;3.74;75.87
75357;HTU21D;63946;51.986;5.930;2023-01-26T10:00:32;3.78;75.88
75357;HTU21D;63946;51.986;5.930;2023-01-26T10:03:38;3.79;75.93
75357;HTU21D;63946;51.986;5.930;2023-01-26T10:06:27;3.84;75.99
75357;HTU21D;63946;51.986;5.930;2023-01-26T10:09:18;3.88;76.05
75357;HTU21D;63946;51.986;5.930;2023-01-26T10:11:53;3.95;76.01
75357;HTU21D;63946;51.986;5.930;2023-01-26T10:14:43;4.01;76.13
75357;HTU21D;63946;51.986;5.930;2023-01-26T10:17:20;4.04;76.15
75357;HTU21D;63946;51.986;5.930;2023-01-26T10:20:05;4.05;76.34
75357;HTU21D;63946;51.986;5.930;2023-01-26T10:22:44;4.09;76.34
75357;HTU21D;63946;51.986;5.930;2023-01-26T10:25:16;4.14;76.23
75357;HTU21D;63946;51.986;5.930;2023-01-26T10:27:46;4.21;76.28
75357;HTU21D;63946;51.986;5.930;2023-01-26T10:30:16;4.30;76.30
75357;HTU21D;63946;51.986;5.930;2023-01-26T10:32:49;4.36;76.21
75357;HTU21D;63946;51.986;5.930;2023-01-26T10:35:23;4.41;76.26
75357;HTU21D;63946;51.986;5.930;2023-01-26T10:37:52;4.46;76.24
75357;HTU21D;63946;51.986;5.930;2023-01-26T10:40:22;4.51;76.30
75357;HTU21D;63946;51.986;5.930;2023-01-26T10:42:57;4.59;76.24
75357;HTU21D;63946;51.986;5.930;2023-01-26T10:45:31;4.65;76.30
75357;HTU21D;63946;51.986;5.930;2023-01-26T10:48:12;4.74;76.29
75357;HTU21D;63946;51.986;5.930;2023-01-26T10:50:43;4.82;76.19
75357;HTU21D;63946;51.986;5.930;2023-01-26T10:56:03;5.05;76.05
75357;HTU21D;63946;51.986;5.930;2023-01-26T10:58:54;5.12;75.80
75357;HTU21D;63946;51.986;5.930;2023-01-26T11:01:23;5.23;75.66
75357;HTU21D;63946;51.986;5.930;2023-01-26T11:04:09;5.33;75.44
75357;HTU21D;63946;51.986;5.930;2023-01-26T11:06:39;5.39;75.31
75357;HTU21D;63946;51.986;5.930;2023-01-26T11:12:00;5.53;75.08
75357;HTU21D;63946;51.986;5.930;2023-01-26T11:14:31;5.61;75.02
75357;HTU21D;63946;51.986;5.930;2023-01-26T11:17:21;5.67;74.92
75357;HTU21D;63946;51.986;5.930;2023-01-26T11:22:57;5.91;74.84
75357;HTU21D;63946;51.986;5.930;2023-01-26T11:25:33;6.02;74.70
75357;HTU21D;63946;51.986;5.930;2023-01-26T11:31:31;6.24;74.35
75357;HTU21D;63946;51.986;5.930;2023-01-26T11:34:35;6.33;74.22
75357;HTU21D;63946;51.986;5.930;2023-01-26T11:40:09;6.50;74.09
75357;HTU21D;63946;51.986;5.930;2023-01-26T11:54:29;6.95;73.80
75357;HTU21D;63946;51.986;5.930;2023-01-26T11:57:06;7.05;73.66
75357;HTU21D;63946;51.986;5.930;2023-01-26T11:59:43;7.15;73.61
75357;HTU21D;63946;51.986;5.930;2023-01-26T12:02:34;7.17;73.64
75357;HTU21D;63946;51.986;5.930;2023-01-26T12:05:21;7.23;73.70
75357;HTU21D;63946;51.986;5.930;2023-01-26T12:08:01;7.28;73.80
75357;HTU21D;63946;51.986;5.930;2023-01-26T12:11:03;7.34;73.78
75357;HTU21D;63946;51.986;5.930;2023-01-26T12:13:55;7.43;73.67
75357;HTU21D;63946;51.986;5.930;2023-01-26T12:16:45;7.55;73.75
75357;HTU21D;63946;51.986;5.930;2023-01-26T12:20:37;7.68;73.77
75357;HTU21D;63946;51.986;5.930;2023-01-26T12:22:38;7.84;73.50
75357;HTU21D;63946;51.986;5.930;2023-01-26T12:25:33;8.00;73.15
75357;HTU21D;63946;51.986;5.930;2023-01-26T12:31:03;8.02;72.90
75357;HTU21D;63946;51.986;5.930;2023-01-26T12:33:35;8.07;72.89
75357;HTU21D;63946;51.986;5.930;2023-01-26T12:38:52;8.26;72.84
75357;HTU21D;63946;51.986;5.930;2023-01-26T12:44:43;8.26;72.77
75357;HTU21D;63946;51.986;5.930;2023-01-26T12:47:35;8.22;72.90
75357;HTU21D;63946;51.986;5.930;2023-01-26T12:52:47;8.32;73.06
75357;HTU21D;63946;51.986;5.930;2023-01-26T12:55:21;8.32;73.11
75357;HTU21D;63946;51.986;5.930;2023-01-26T12:57:59;8.31;73.11
75357;HTU21D;63946;51.986;5.930;2023-01-26T13:00:33;8.32;73.16
75357;HTU21D;63946;51.986;5.930;2023-01-26T13:05:58;8.33;72.79
75357;HTU21D;63946;51.986;5.930;2023-01-26T13:11:01;8.45;72.20
75357;HTU21D;63946;51.986;5.930;2023-01-26T13:13:51;8.41;72.22
75357;HTU21D;63946;51.986;5.930;2023-01-26T13:18:53;8.44;72.19
75357;HTU21D;63946;51.986;5.930;2023-01-26T13:26:58;8.46;71.84
75357;HTU21D;63946;51.986;5.930;2023-01-26T13:29:28;8.45;71.95
75357;HTU21D;63946;51.986;5.930;2023-01-26T13:34:52;8.43;72.03
75357;HTU21D;63946;51.986;5.930;2023-01-26T13:40:00;8.37;72.11
75357;HTU21D;63946;51.986;5.930;2023-01-26T13:42:39;8.37;72.03
75357;HTU21D;63946;51.986;5.930;2023-01-26T13:48:06;8.34;72.02
75357;HTU21D;63946;51.986;5.930;2023-01-26T13:50:39;8.36;72.02
75357;HTU21D;63946;51.986;5.930;2023-01-26T13:53:37;8.38;72.00
75357;HTU21D;63946;51.986;5.930;2023-01-26T13:56:28;8.37;71.96
75357;HTU21D;63946;51.986;5.930;2023-01-26T13:59:15;8.37;72.06
75357;HTU21D;63946;51.986;5.930;2023-01-26T14:01:46;8.39;72.06
75357;HTU21D;63946;51.986;5.930;2023-01-26T14:06:58;8.38;72.08
75357;HTU21D;63946;51.986;5.930;2023-01-26T14:09:31;8.42;72.03
75357;HTU21D;63946;51.986;5.930;2023-01-26T14:12:03;8.49;71.81
75357;HTU21D;63946;51.986;5.930;2023-01-26T14:14:35;8.55;71.64
75357;HTU21D;63946;51.986;5.930;2023-01-26T14:17:07;8.58;71.50
75357;HTU21D;63946;51.986;5.930;2023-01-26T14:19:48;8.59;71.46
75357;HTU21D;63946;51.986;5.930;2023-01-26T14:22:17;8.57;71.40
75357;HTU21D;63946;51.986;5.930;2023-01-26T14:24:47;8.56;71.46
75357;HTU21D;63946;51.986;5.930;2023-01-26T14:27:44;8.55;71.28
75357;HTU21D;63946;51.986;5.930;2023-01-26T14:30:29;8.51;71.33
75357;HTU21D;63946;51.986;5.930;2023-01-26T14:33:15;8.48;71.05
75357;HTU21D;63946;51.986;5.930;2023-01-26T14:36:01;8.42;71.03
75357;HTU21D;63946;51.986;5.930;2023-01-26T14:38:40;8.39;71.01
75357;HTU21D;63946;51.986;5.930;2023-01-26T14:43:48;8.31;70.71
75357;HTU21D;63946;51.986;5.930;2023-01-26T14:46:24;8.28;70.53
75357;HTU21D;63946;51.986;5.930;2023-01-26T14:49:01;8.28;70.52
75357;HTU21D;63946;51.986;5.930;2023-01-26T14:51:31;8.26;70.37
75357;HTU21D;63946;51.986;5.930;2023-01-26T14:54:16;8.26;70.13
75357;HTU21D;63946;51.986;5.930;2023-01-26T14:56:46;8.26;70.27
75357;HTU21D;63946;51.986;5.930;2023-01-26T14:59:21;8.29;70.12
75357;HTU21D;63946;51.986;5.930;2023-01-26T15:02:12;8.26;69.91
75357;HTU21D;63946;51.986;5.930;2023-01-26T15:04:47;8.23;69.90
75357;HTU21D;63946;51.986;5.930;2023-01-26T15:13:03;8.16;69.37
75357;HTU21D;63946;51.986;5.930;2023-01-26T15:15:36;8.12;69.61
75357;HTU21D;63946;51.986;5.930;2023-01-26T15:18:17;8.11;69.53
75357;HTU21D;63946;51.986;5.930;2023-01-26T15:23:26;8.08;69.63
75357;HTU21D;63946;51.986;5.930;2023-01-26T15:26:03;8.06;69.53
75357;HTU21D;63946;51.986;5.930;2023-01-26T15:28:32;8.02;69.67
75357;HTU21D;63946;51.986;5.930;2023-01-26T15:31:02;8.03;69.68
75357;HTU21D;63946;51.986;5.930;2023-01-26T15:33:47;7.98;69.58
75357;HTU21D;63946;51.986;5.930;2023-01-26T15:36:30;7.96;69.37
75357;HTU21D;63946;51.986;5.930;2023-01-26T15:39:11;7.93;69.36
75357;HTU21D;63946;51.986;5.930;2023-01-26T15:41:41;7.92;69.45
75357;HTU21D;63946;51.986;5.930;2023-01-26T15:44:19;7.93;69.49
75357;HTU21D;63946;51.986;5.930;2023-01-26T15:46:48;7.93;69.50
75357;HTU21D;63946;51.986;5.930;2023-01-26T15:49:17;7.94;69.57
75357;HTU21D;63946;51.986;5.930;2023-01-26T15:51:47;7.92;69.54
75357;HTU21D;63946;51.986;5.930;2023-01-26T15:54:16;7.92;69.59
75357;HTU21D;63946;51.986;5.930;2023-01-26T15:56:45;7.91;69.59
75357;HTU21D;63946;51.986;5.930;2023-01-26T15:59:13;7.88;69.58
75357;HTU21D;63946;51.986;5.930;2023-01-26T16:01:42;7.86;69.58
75357;HTU21D;63946;51.986;5.930;2023-01-26T16:04:15;7.85;69.63
75357;HTU21D;63946;51.986;5.930;2023-01-26T16:06:43;7.83;69.80
75357;HTU21D;63946;51.986;5.930;2023-01-26T16:09:12;7.81;69.98
75357;HTU21D;63946;51.986;5.930;2023-01-26T16:11:50;7.81;70.12
75357;HTU21D;63946;51.986;5.930;2023-01-26T16:14:22;7.78;70.29
75357;HTU21D;63946;51.986;5.930;2023-01-26T16:16:51;7.76;70.44
75357;HTU21D;63946;51.986;5.930;2023-01-26T16:19:20;7.74;70.61
75357;HTU21D;63946;51.986;5.930;2023-01-26T16:21:49;7.74;70.64
75357;HTU21D;63946;51.986;5.930;2023-01-26T16:24:17;7.71;70.68
75357;HTU21D;63946;51.986;5.930;2023-01-26T16:26:46;7.70;70.84
75357;HTU21D;63946;51.986;5.930;2023-01-26T16:29:15;7.70;70.89
75357;HTU21D;63946;51.986;5.930;2023-01-26T16:31:43;7.68;71.00
75357;HTU21D;63946;51.986;5.930;2023-01-26T16:34:12;7.68;71.02
75357;HTU21D;63946;51.986;5.930;2023-01-26T16:36:41;7.65;71.10
75357;HTU21D;63946;51.986;5.930;2023-01-26T16:39:10;7.65;71.16
75357;HTU21D;63946;51.986;5.930;2023-01-26T16:41:39;7.67;70.94
75357;HTU21D;63946;51.986;5.930;2023-01-26T16:44:13;7.64;70.55
75357;HTU21D;63946;51.986;5.930;2023-01-26T16:46:42;7.64;70.54
75357;HTU21D;63946;51.986;5.930;2023-01-26T16:49:13;7.61;70.49
75357;HTU21D;63946;51.986;5.930;2023-01-26T16:51:44;7.61;70.57
75357;HTU21D;63946;51.986;5.930;2023-01-26T16:54:13;7.61;70.61
75357;HTU21D;63946;51.986;5.930;2023-01-26T16:56:41;7.60;70.73
75357;HTU21D;63946;51.986;5.930;2023-01-26T16:59:11;7.61;70.87
75357;HTU21D;63946;51.986;5.930;2023-01-26T17:01:40;7.59;70.96
75357;HTU21D;63946;51.986;5.930;2023-01-26T17:04:12;7.59;70.97
75357;HTU21D;63946;51.986;5.930;2023-01-26T17:06:40;7.57;70.87
75357;HTU21D;63946;51.986;5.930;2023-01-26T17:09:09;7.52;70.73
75357;HTU21D;63946;51.986;5.930;2023-01-26T17:11:38;7.48;70.61
75357;HTU21D;63946;51.986;5.930;2023-01-26T17:14:08;7.47;70.55
75357;HTU21D;63946;51.986;5.930;2023-01-26T17:16:38;7.47;70.35
75357;HTU21D;63946;51.986;5.930;2023-01-26T17:19:06;7.45;70.13
75357;HTU21D;63946;51.986;5.930;2023-01-26T17:21:35;7.43;69.94
75357;HTU21D;63946;51.986;5.930;2023-01-26T17:24:04;7.44;69.99
75357;HTU21D;63946;51.986;5.930;2023-01-26T17:26:33;7.44;69.90
75357;HTU21D;63946;51.986;5.930;2023-01-26T17:29:05;7.42;69.67